Alexandria, NE

6:54 PM CST on December 19, 2014 (GMT -0600)
York Municipal | Change Station
CLOSE
Current Station
Airport
Location: York,
Elevation: 1670 ft
Nearby Weather Stations

Elev 1670 ft 40.90 °N, 97.62 °W | Updated 19 minutes ago

Overcast
Overcast
32 °F
Feels Like 25 °F
N
8
Wind Variable Wind from South

Today
High -- | Low -- °F
--% Chance of Precip.
Yesterday
High -- | Low -- °F
Precip. -- in
7:47 AM 5:05 PM
Waning Crescent, 5% visible
Pressure 30.10 in
Visibility 6.0 miles
Clouds Overcast 800 ft
Windchill 25 °F
Dew Point 32 °F
Humidity 100%
Rainfall 0.00 in
Snow Depth Not available.
UV 0 out of 12
Pollen .10 out of 12
Air Quality Not available.
Flu Activity Not available.
METAR KJYR 200035Z AUTO 18007KT 6SM BR OVC008 00/00 A3010 RMK AO2

More Conditions Fewer Conditions

Pressure 30.10 in
Visibility 6.0 miles
Clouds Overcast 800 ft
Windchill 25 °F
Dew Point 32 °F
Humidity 100%
Rainfall 0.00 in
Snow Depth Not available.
UV 0 out of 12
Pollen .10 out of 12
Air Quality Not available.
Flu Activity Not available.
METAR KJYR 200035Z AUTO 18007KT 6SM BR OVC008 00/00 A3010 RMK AO2

More Conditions Fewer Conditions

10-Day Weather Forecast

Almanac

Astronomy

Dec. 19, 2014 Rise Set
Actual Time
Civil Twilight
Nautical Twilight
Astronomical Twilight
Moon
Length of Visible Light
Length of Day
Tomorrow will be .
, % of the Moon is Illuminated

Today's Extremes

State Highs State Lows

Community

WunderPhotos

Upload Photos

1,779,093 photos uploaded!

WunderBlogs® & News

Nearby

Air Quality

  Air Quality AQ Index Pollutant
Not available.

Snow Depth

Station Depth Elevation

Earthquake Activity

City Distance Mag. Time & Date
Minimum magnitude displayed is 2.5.

Coastal Water Temperatures

Place Temperature

Nearby Weather Stations